Time;durP1;ratioP1;P1;durP2;ratioP2;P2;SDS_P1;SDS_P2;PMS_P1;PMS_P2;Temp;Humidity;BMP_temperature;BMP_pressure;BME280_temperature;BME280_humidity;BME280_pressure;Samples;Min_cycle;Max_cycle;Signal;HPM_P1;HPM_P2
2020/12/02 00:02:16;;;;;;;23.65;15.85;;;8.30;99.90;;;;;;5057715;28;20224;-77
2020/12/02 00:04:43;;;;;;;21.88;16.27;;;8.30;99.90;;;;;;5056853;28;20256;-78
2020/12/02 00:07:10;;;;;;;25.20;16.95;;;8.30;99.90;;;;;;5057988;28;20201;-79
2020/12/02 00:09:36;;;;;;;21.70;16.35;;;8.30;99.90;;;;;;5065027;28;20203;-79
2020/12/02 00:12:02;;;;;;;25.55;16.75;;;8.30;99.90;;;;;;5060644;28;20203;-80
2020/12/02 00:14:31;;;;;;;23.80;17.10;;;8.30;99.90;;;;;;5056941;28;20665;-79
2020/12/02 00:16:57;;;;;;;23.45;17.85;;;8.30;99.90;;;;;;5062563;28;20206;-78
2020/12/02 00:19:25;;;;;;;25.63;16.50;;;8.30;99.90;;;;;;5063917;28;20578;-79
2020/12/02 00:22:04;;;;;;;24.00;17.98;;;8.30;99.90;;;;;;5056858;28;20311;-79
2020/12/02 00:24:34;;;;;;;24.63;17.30;;;8.30;99.90;;;;;;5061178;28;20232;-76
2020/12/02 00:27:01;;;;;;;25.00;18.23;;;8.30;99.90;;;;;;5057607;28;20207;-77
2020/12/02 00:29:28;;;;;;;24.02;18.70;;;8.30;99.90;;;;;;5055931;28;20244;-80
2020/12/02 00:31:55;;;;;;;25.88;17.92;;;8.30;99.90;;;;;;5063463;28;20186;-78
2020/12/02 00:34:22;;;;;;;26.48;17.95;;;8.30;99.90;;;;;;5054177;28;20192;-80
2020/12/02 00:36:48;;;;;;;26.30;17.67;;;8.30;99.90;;;;;;5059802;28;20193;-77
2020/12/02 00:39:14;;;;;;;21.05;16.85;;;8.30;99.90;;;;;;5062513;28;20201;-79
2020/12/02 00:41:40;;;;;;;22.83;17.60;;;8.30;99.90;;;;;;5058165;28;20220;-77
2020/12/02 00:44:08;;;;;;;27.13;19.10;;;8.30;99.90;;;;;;5056668;28;20201;-77
2020/12/02 00:46:35;;;;;;;25.60;18.77;;;8.30;99.90;;;;;;5057733;28;20194;-77
2020/12/02 00:49:02;;;;;;;22.73;16.25;;;8.30;99.90;;;;;;5059741;28;20449;-80
2020/12/02 00:51:28;;;;;;;26.20;17.60;;;8.30;99.90;;;;;;5060488;28;20209;-77
2020/12/02 00:53:55;;;;;;;26.23;17.58;;;8.30;99.90;;;;;;5062167;28;20217;-76
2020/12/02 00:56:21;;;;;;;24.75;17.83;;;8.30;99.90;;;;;;5059355;28;20201;-76
2020/12/02 00:58:56;;;;;;;26.33;17.67;;;8.30;99.90;;;;;;5056949;28;20186;-76
2020/12/02 01:01:39;;;;;;;27.95;17.90;;;8.30;99.90;;;;;;5061916;28;20254;-77
2020/12/02 01:04:09;;;;;;;28.98;17.63;;;8.30;99.90;;;;;;5057430;28;20188;-79
2020/12/02 01:06:35;;;;;;;24.65;17.63;;;8.30;99.90;;;;;;5062362;28;20189;-80
2020/12/02 01:09:03;;;;;;;21.52;16.92;;;8.30;99.90;;;;;;5063392;28;20546;-78
2020/12/02 01:11:30;;;;;;;19.02;16.42;;;8.20;99.90;;;;;;5061388;28;20194;-80
2020/12/02 01:13:58;;;;;;;20.92;16.30;;;8.20;99.90;;;;;;5058509;28;20200;-77
2020/12/02 01:16:28;;;;;;;21.52;16.25;;;8.20;99.90;;;;;;5061267;28;20282;-77
2020/12/02 01:18:56;;;;;;;20.23;15.35;;;8.20;99.90;;;;;;5058499;28;20640;-76
2020/12/02 01:21:32;;;;;;;24.05;17.35;;;8.20;99.90;;;;;;5064213;28;20251;-76
2020/12/02 01:24:01;;;;;;;22.35;16.08;;;8.20;99.90;;;;;;5060139;28;20193;-77
2020/12/02 01:26:33;;;;;;;29.80;17.00;;;8.20;99.90;;;;;;5057409;28;20545;-78
2020/12/02 01:29:02;;;;;;;24.27;18.30;;;8.20;99.90;;;;;;5063122;28;20706;-76
2020/12/02 01:31:30;;;;;;;22.90;16.45;;;8.20;99.90;;;;;;5059999;28;20233;-77
2020/12/02 01:33:56;;;;;;;22.42;15.85;;;8.20;99.90;;;;;;5063987;28;20193;-76
2020/12/02 01:36:46;;;;;;;19.85;15.45;;;8.20;99.90;;;;;;5061850;28;20198;-77
2020/12/02 01:39:13;;;;;;;21.17;17.80;;;8.20;99.90;;;;;;5068725;28;20288;-76
2020/12/02 01:41:40;;;;;;;19.55;15.38;;;8.10;99.90;;;;;;5062875;28;20704;-76
2020/12/02 01:44:10;;;;;;;20.00;15.40;;;8.10;99.90;;;;;;5062044;28;20195;-79
2020/12/02 01:46:43;;;;;;;22.95;16.88;;;8.10;99.90;;;;;;5065589;28;20194;-78
2020/12/02 01:49:24;;;;;;;21.40;17.08;;;8.10;99.90;;;;;;5064095;28;20627;-78
2020/12/02 01:52:06;;;;;;;21.35;16.70;;;8.10;99.90;;;;;;5057936;28;20200;-77
2020/12/02 01:54:36;;;;;;;23.60;17.13;;;8.10;99.90;;;;;;5063825;28;20582;-76
2020/12/02 01:57:10;;;;;;;29.60;18.23;;;8.10;99.90;;;;;;5066117;28;20633;-76
2020/12/02 01:59:51;;;;;;;26.83;17.65;;;8.10;99.90;;;;;;5066125;28;20199;-77
2020/12/02 02:02:26;;;;;;;19.73;15.77;;;8.00;99.90;;;;;;5061221;28;20285;-76
2020/12/02 02:05:03;;;;;;;21.70;17.58;;;8.00;99.90;;;;;;5056406;28;20249;-76
2020/12/02 02:07:33;;;;;;;24.85;17.17;;;8.00;99.90;;;;;;5062890;28;20265;-77
2020/12/02 02:10:06;;;;;;;27.85;17.50;;;8.00;99.90;;;;;;5063962;28;20205;-77
2020/12/02 02:13:10;;;;;;;23.55;16.50;;;8.00;99.90;;;;;;5064170;28;20207;-79
2020/12/02 02:15:43;;;;;;;23.55;17.13;;;8.00;99.90;;;;;;5060270;28;20574;-76
2020/12/02 02:18:12;;;;;;;27.65;17.17;;;8.00;99.90;;;;;;5060060;28;20280;-79
2020/12/02 02:20:44;;;;;;;35.42;19.02;;;8.00;99.90;;;;;;5062413;28;20209;-77
2020/12/02 02:23:13;;;;;;;19.98;14.32;;;8.00;99.90;;;;;;5061486;28;20204;-76
2020/12/02 02:25:41;;;;;;;22.77;17.67;;;8.00;99.90;;;;;;5060734;28;20196;-78
2020/12/02 02:28:09;;;;;;;22.60;16.85;;;8.00;99.90;;;;;;5064502;28;20221;-76
2020/12/02 02:30:36;;;;;;;27.80;17.35;;;8.00;99.90;;;;;;5058749;28;20260;-76
2020/12/02 02:33:03;;;;;;;26.17;16.70;;;8.00;99.90;;;;;;5061864;28;20202;-77
2020/12/02 02:35:30;;;;;;;21.58;16.05;;;8.00;99.90;;;;;;5058536;28;20193;-76
2020/12/02 02:37:56;;;;;;;20.63;15.85;;;8.00;99.90;;;;;;5061377;28;20195;-79
2020/12/02 02:40:22;;;;;;;23.77;16.25;;;8.00;99.90;;;;;;5061671;28;20206;-76
2020/12/02 02:42:51;;;;;;;20.58;16.30;;;8.00;99.90;;;;;;5063731;28;20230;-77
2020/12/02 02:45:24;;;;;;;22.77;17.08;;;8.00;99.90;;;;;;5067945;28;20232;-76
2020/12/02 02:47:51;;;;;;;24.85;16.45;;;8.00;99.90;;;;;;5060494;28;20684;-76
2020/12/02 02:50:20;;;;;;;23.38;16.27;;;8.00;99.90;;;;;;5059861;28;20193;-79
2020/12/02 02:52:47;;;;;;;22.00;15.30;;;8.00;99.90;;;;;;5061182;28;20206;-76
2020/12/02 02:55:16;;;;;;;26.85;16.60;;;8.00;99.90;;;;;;5064070;28;20200;-78
2020/12/02 02:57:43;;;;;;;22.45;16.48;;;8.00;99.90;;;;;;5058222;28;20190;-79
2020/12/02 03:00:13;;;;;;;20.67;15.35;;;8.00;99.90;;;;;;5063906;28;20690;-77
2020/12/02 03:02:41;;;;;;;22.95;17.35;;;8.00;99.90;;;;;;5065291;28;20466;-78
2020/12/02 03:05:08;;;;;;;24.77;18.52;;;8.00;99.90;;;;;;5061582;28;20692;-77
2020/12/02 03:07:36;;;;;;;22.90;16.50;;;8.00;99.90;;;;;;5060464;28;20210;-76
2020/12/02 03:10:05;;;;;;;24.10;16.60;;;8.00;99.90;;;;;;5062624;28;20197;-76
2020/12/02 03:12:32;;;;;;;26.90;17.50;;;8.00;99.90;;;;;;5061158;28;20188;-76
2020/12/02 03:14:59;;;;;;;21.90;17.00;;;8.00;99.90;;;;;;5062962;28;20190;-77
2020/12/02 03:17:26;;;;;;;25.00;16.45;;;8.00;99.90;;;;;;5067071;28;20203;-76
2020/12/02 03:19:58;;;;;;;19.80;16.33;;;8.00;99.90;;;;;;5062104;28;20200;-76
2020/12/02 03:22:27;;;;;;;25.90;14.52;;;8.10;99.90;;;;;;5057049;28;20693;-76
2020/12/02 03:24:56;;;;;;;22.83;15.73;;;8.00;99.90;;;;;;5055679;28;20547;-77
2020/12/02 03:27:23;;;;;;;22.73;15.55;;;8.00;99.90;;;;;;5063486;28;20198;-76
2020/12/02 03:29:50;;;;;;;20.67;15.32;;;8.00;99.90;;;;;;5062261;28;20219;-79
2020/12/02 03:32:16;;;;;;;23.20;16.92;;;8.00;99.90;;;;;;5058259;28;20207;-76
2020/12/02 03:34:43;;;;;;;24.17;17.05;;;8.00;99.90;;;;;;5063354;28;20185;-78
2020/12/02 03:37:10;;;;;;;30.70;17.33;;;8.00;99.90;;;;;;5063995;28;21032;-76
2020/12/02 03:39:37;;;;;;;25.77;15.60;;;8.00;99.90;;;;;;5066254;28;20335;-76
2020/12/02 03:42:03;;;;;;;29.73;15.65;;;8.00;99.90;;;;;;5060415;28;20711;-79
2020/12/02 03:44:30;;;;;;;27.40;15.80;;;8.00;99.90;;;;;;5060409;28;20199;-77
2020/12/02 03:46:57;;;;;;;29.98;16.50;;;8.00;99.90;;;;;;5058525;28;20212;-76
2020/12/02 03:49:23;;;;;;;27.58;16.15;;;8.00;99.90;;;;;;5058558;28;20194;-76
2020/12/02 03:51:50;;;;;;;29.48;16.58;;;8.00;99.90;;;;;;5055305;28;20188;-78
2020/12/02 03:54:17;;;;;;;30.85;16.38;;;8.00;99.90;;;;;;5065275;28;20210;-76
2020/12/02 03:56:43;;;;;;;27.10;14.68;;;8.00;99.90;;;;;;5061388;28;20648;-77
2020/12/02 03:59:10;;;;;;;29.08;15.13;;;8.00;99.90;;;;;;5058915;28;20207;-77
2020/12/02 04:01:36;;;;;;;20.83;13.95;;;8.00;99.90;;;;;;5063583;28;20572;-75
2020/12/02 04:04:02;;;;;;;30.55;15.43;;;8.00;99.90;;;;;;5065321;28;20244;-76
2020/12/02 04:06:28;;;;;;;22.45;14.68;;;8.00;99.90;;;;;;5064631;28;20762;-80
2020/12/02 04:08:55;;;;;;;34.65;15.93;;;8.00;99.90;;;;;;5058833;28;20542;-77
2020/12/02 04:11:22;;;;;;;29.10;15.45;;;8.00;99.90;;;;;;5060024;28;20205;-76
2020/12/02 04:13:48;;;;;;;19.88;12.80;;;7.90;99.90;;;;;;5059585;28;20672;-76
2020/12/02 04:16:15;;;;;;;26.60;15.73;;;8.00;99.90;;;;;;5055549;28;20808;-76
2020/12/02 04:18:41;;;;;;;23.33;13.88;;;8.00;99.90;;;;;;5063149;28;20185;-76
2020/12/02 04:21:07;;;;;;;28.77;14.82;;;8.00;99.90;;;;;;5063499;28;20222;-79
2020/12/02 04:23:34;;;;;;;25.63;14.32;;;8.00;99.90;;;;;;5059068;28;20189;-76
2020/12/02 04:26:00;;;;;;;19.90;13.40;;;8.00;99.90;;;;;;5058731;28;20248;-76
2020/12/02 04:28:27;;;;;;;19.80;12.35;;;7.90;99.90;;;;;;5062669;28;20193;-76
2020/12/02 04:30:57;;;;;;;33.75;13.43;;;7.90;99.90;;;;;;5064002;28;20975;-78
2020/12/02 04:33:23;;;;;;;26.40;13.63;;;8.00;99.90;;;;;;5062478;28;20261;-76
2020/12/02 04:35:50;;;;;;;22.67;15.43;;;7.90;99.90;;;;;;5063423;28;20198;-79
2020/12/02 04:38:16;;;;;;;29.48;14.32;;;7.90;99.90;;;;;;5058078;28;20201;-76
2020/12/02 04:40:43;;;;;;;20.27;12.63;;;7.90;99.90;;;;;;5058999;28;20208;-76
2020/12/02 04:43:16;;;;;;;21.08;12.80;;;7.90;99.90;;;;;;5062801;28;20220;-76
2020/12/02 04:45:44;;;;;;;29.38;13.80;;;7.90;99.90;;;;;;5054398;28;20198;-78
2020/12/02 04:48:13;;;;;;;15.27;11.82;;;7.90;99.90;;;;;;5063604;28;20605;-78
2020/12/02 04:50:39;;;;;;;25.70;14.73;;;7.90;99.90;;;;;;5063503;28;20197;-75
2020/12/02 04:53:13;;;;;;;21.90;13.85;;;7.90;99.90;;;;;;5060865;28;20224;-79
2020/12/02 04:55:40;;;;;;;22.55;13.52;;;7.90;99.90;;;;;;5058300;28;20193;-76
2020/12/02 04:58:18;;;;;;;22.13;14.30;;;7.90;99.90;;;;;;5063277;28;20204;-75
2020/12/02 05:00:45;;;;;;;33.08;14.25;;;7.80;99.90;;;;;;5059614;28;20237;-78
2020/12/02 05:03:15;;;;;;;24.60;14.43;;;7.80;99.90;;;;;;5061885;28;20228;-77
2020/12/02 05:05:41;;;;;;;22.38;13.75;;;7.80;99.90;;;;;;5064742;28;20189;-75
2020/12/02 05:08:27;;;;;;;16.67;11.95;;;7.80;99.90;;;;;;5059341;28;20259;-78
2020/12/02 05:10:55;;;;;;;20.13;13.20;;;7.80;99.90;;;;;;5060264;28;20192;-76
2020/12/02 05:13:22;;;;;;;23.65;14.48;;;7.80;99.90;;;;;;5059555;28;20189;-75
2020/12/02 05:16:04;;;;;;;26.85;13.90;;;7.80;99.90;;;;;;5066664;28;20189;-76
2020/12/02 05:18:30;;;;;;;23.63;12.95;;;7.80;99.90;;;;;;5068075;28;20612;-76
2020/12/02 05:21:18;;;;;;;31.33;12.95;;;7.80;99.90;;;;;;5065216;28;20205;-77
2020/12/02 05:23:45;;;;;;;23.15;12.57;;;7.80;99.90;;;;;;5058481;28;20684;-75
2020/12/02 05:26:17;;;;;;;25.27;14.40;;;7.80;99.90;;;;;;5059856;28;20675;-79
2020/12/02 05:28:45;;;;;;;26.30;13.77;;;7.80;99.90;;;;;;5058941;28;20217;-77
2020/12/02 05:31:20;;;;;;;24.50;14.27;;;7.80;99.90;;;;;;5064715;28;20289;-77
2020/12/02 05:33:46;;;;;;;26.85;15.30;;;7.80;99.90;;;;;;5060485;28;20189;-75
2020/12/02 05:36:16;;;;;;;24.60;13.35;;;7.80;99.90;;;;;;5067280;28;20210;-75
2020/12/02 05:38:50;;;;;;;23.25;14.90;;;7.80;99.90;;;;;;5059930;28;20648;-76
2020/12/02 05:41:18;;;;;;;16.08;13.02;;;7.80;99.90;;;;;;5062872;28;20224;-76
2020/12/02 05:43:52;;;;;;;27.58;14.85;;;7.80;99.90;;;;;;5059833;28;20196;-76
2020/12/02 05:46:25;;;;;;;23.00;14.10;;;7.80;99.90;;;;;;5059990;28;20283;-76
2020/12/02 05:49:00;;;;;;;33.10;14.68;;;7.90;99.90;;;;;;5061477;28;20269;-78
2020/12/02 05:51:26;;;;;;;24.92;14.15;;;7.90;99.90;;;;;;5063636;28;20207;-76
2020/12/02 05:53:56;;;;;;;25.05;13.70;;;7.90;99.90;;;;;;5059723;28;20205;-76
2020/12/02 05:56:23;;;;;;;21.88;13.63;;;7.90;99.90;;;;;;5069353;28;20188;-77
2020/12/02 05:58:49;;;;;;;26.00;14.77;;;7.90;99.90;;;;;;5066058;28;20652;-76
2020/12/02 06:01:18;;;;;;;19.10;14.40;;;7.90;99.90;;;;;;5065570;28;20229;-76
2020/12/02 06:03:50;;;;;;;27.08;15.60;;;7.90;99.90;;;;;;5064209;28;20201;-76
2020/12/02 06:06:17;;;;;;;26.17;14.88;;;7.90;99.90;;;;;;5063689;28;20198;-75
2020/12/02 06:08:46;;;;;;;20.13;13.95;;;7.90;99.90;;;;;;5065043;28;20233;-76
2020/12/02 06:11:27;;;;;;;21.25;13.10;;;7.90;99.90;;;;;;5063332;28;20653;-80
2020/12/02 06:13:55;;;;;;;23.85;13.40;;;7.90;99.90;;;;;;5053445;28;20209;-76
2020/12/02 06:16:35;;;;;;;23.17;12.65;;;7.90;99.90;;;;;;5057515;28;20580;-76
2020/12/02 06:19:15;;;;;;;21.55;14.00;;;7.90;99.90;;;;;;5057622;28;20201;-77
2020/12/02 06:21:43;;;;;;;23.58;13.07;;;7.90;99.90;;;;;;5061061;28;20220;-76
2020/12/02 06:24:11;;;;;;;22.67;14.27;;;7.90;99.90;;;;;;5060384;28;20464;-75
2020/12/02 06:26:40;;;;;;;20.45;14.23;;;7.90;99.90;;;;;;5061519;28;20692;-76
2020/12/02 06:29:16;;;;;;;24.15;14.07;;;7.90;99.90;;;;;;5058052;28;20224;-75
2020/12/02 06:31:51;;;;;;;27.30;14.27;;;7.90;99.90;;;;;;5055213;28;20223;-75
2020/12/02 06:34:24;;;;;;;25.73;14.70;;;7.90;99.90;;;;;;5060089;28;20227;-75
2020/12/02 06:37:08;;;;;;;17.80;12.70;;;7.90;99.90;;;;;;5062748;28;20205;-75
2020/12/02 06:39:37;;;;;;;22.23;14.35;;;7.90;99.90;;;;;;5063190;28;20204;-76
2020/12/02 06:42:32;;;;;;;24.38;14.70;;;7.90;99.90;;;;;;5060310;28;20281;-79
2020/12/02 06:45:11;;;;;;;22.95;13.90;;;7.90;99.90;;;;;;5055940;28;20204;-76
2020/12/02 06:47:56;;;;;;;23.33;13.50;;;7.90;99.90;;;;;;5051243;28;21094;-79
2020/12/02 06:50:26;;;;;;;23.13;15.15;;;7.90;99.90;;;;;;5060696;28;20201;-76
2020/12/02 06:52:56;;;;;;;22.08;14.23;;;7.90;99.90;;;;;;5057777;28;20200;-78
2020/12/02 06:55:24;;;;;;;18.10;13.77;;;7.80;99.90;;;;;;5057345;28;20413;-77
2020/12/02 06:57:57;;;;;;;30.08;14.63;;;7.80;99.90;;;;;;5058802;28;20200;-76
2020/12/02 07:00:26;;;;;;;21.02;14.23;;;7.80;99.90;;;;;;5061415;28;20235;-76
2020/12/02 07:02:58;;;;;;;30.13;13.35;;;7.80;99.90;;;;;;5064000;28;20220;-75
2020/12/02 07:05:36;;;;;;;22.13;14.45;;;7.80;99.90;;;;;;5058196;28;20305;-76
2020/12/02 07:08:14;;;;;;;22.90;16.33;;;7.80;99.90;;;;;;5057600;28;20196;-75
2020/12/02 07:10:42;;;;;;;24.90;15.07;;;7.80;99.90;;;;;;5060272;28;20197;-77
2020/12/02 07:13:15;;;;;;;22.67;14.98;;;7.80;99.90;;;;;;5061090;28;20224;-77
2020/12/02 07:15:43;;;;;;;21.92;13.60;;;7.80;99.90;;;;;;5059095;28;20813;-75
2020/12/02 07:18:11;;;;;;;24.35;15.55;;;7.90;99.90;;;;;;5060357;28;20209;-79
2020/12/02 07:20:42;;;;;;;23.98;14.55;;;7.90;99.90;;;;;;5057309;28;20653;-79
2020/12/02 07:23:08;;;;;;;23.23;14.50;;;7.90;99.90;;;;;;5055478;28;20244;-77
2020/12/02 07:25:34;;;;;;;21.77;13.70;;;7.90;99.90;;;;;;5056398;28;20738;-78
2020/12/02 07:28:00;;;;;;;22.83;13.63;;;7.90;99.90;;;;;;5063467;28;20193;-75
2020/12/02 07:30:31;;;;;;;23.25;15.68;;;7.90;99.90;;;;;;5058348;28;20209;-77
2020/12/02 07:33:10;;;;;;;24.55;15.65;;;7.80;99.90;;;;;;5054316;28;20201;-75
2020/12/02 07:35:38;;;;;;;23.20;14.10;;;7.80;99.90;;;;;;5051749;28;20202;-76
2020/12/02 07:38:08;;;;;;;23.67;15.32;;;7.80;99.90;;;;;;5065382;28;20207;-75
2020/12/02 07:40:38;;;;;;;31.25;15.63;;;7.80;99.90;;;;;;5061047;28;20211;-75
2020/12/02 07:43:09;;;;;;;31.38;14.02;;;7.80;99.90;;;;;;5051509;28;20670;-75
2020/12/02 07:45:36;;;;;;;25.98;14.68;;;7.80;99.90;;;;;;5053920;28;20206;-78
2020/12/02 07:48:07;;;;;;;29.05;16.63;;;7.80;99.90;;;;;;5059480;28;20204;-75
2020/12/02 07:50:35;;;;;;;25.38;14.05;;;7.90;99.90;;;;;;5055939;28;20185;-77
2020/12/02 07:53:09;;;;;;;29.88;15.38;;;7.80;99.90;;;;;;5053252;28;20768;-76
2020/12/02 07:55:40;;;;;;;26.13;15.20;;;7.80;99.90;;;;;;5051726;28;20194;-77
2020/12/02 07:58:12;;;;;;;33.05;15.57;;;7.90;99.90;;;;;;5054126;28;20654;-75
2020/12/02 08:00:43;;;;;;;25.05;14.40;;;7.80;99.90;;;;;;5058712;28;20213;-75
2020/12/02 08:03:26;;;;;;;28.48;15.02;;;7.80;99.90;;;;;;5057942;28;20732;-75
2020/12/02 08:06:01;;;;;;;25.52;15.50;;;7.80;99.90;;;;;;5055546;28;20439;-76
2020/12/02 08:08:27;;;;;;;29.30;14.80;;;7.80;99.90;;;;;;5060853;28;20189;-75
2020/12/02 08:11:04;;;;;;;27.93;14.83;;;7.80;99.90;;;;;;5058954;28;20189;-75
2020/12/02 08:13:32;;;;;;;25.02;15.43;;;7.80;99.90;;;;;;5062089;28;20960;-77
2020/12/02 08:15:59;;;;;;;24.08;14.65;;;7.80;99.90;;;;;;5061801;28;20193;-76
2020/12/02 08:18:27;;;;;;;24.50;15.07;;;7.80;99.90;;;;;;5060356;28;20203;-75
2020/12/02 08:21:05;;;;;;;24.20;16.00;;;7.80;99.90;;;;;;5057135;28;20201;-75
2020/12/02 08:23:37;;;;;;;21.02;16.00;;;7.80;99.90;;;;;;5057461;28;20316;-75
2020/12/02 08:26:11;;;;;;;20.75;16.10;;;7.90;99.90;;;;;;5061728;28;20197;-77
2020/12/02 08:28:40;;;;;;;22.02;15.95;;;7.90;99.90;;;;;;5059251;28;20742;-75
2020/12/02 08:31:17;;;;;;;24.05;16.70;;;7.90;99.90;;;;;;5054480;28;20208;-76
2020/12/02 08:34:08;;;;;;;24.55;14.18;;;7.90;99.90;;;;;;5057476;28;20197;-78
2020/12/02 08:36:34;;;;;;;29.85;16.13;;;7.90;99.90;;;;;;5057544;28;21194;-78
2020/12/02 08:39:01;;;;;;;21.73;14.65;;;7.90;99.90;;;;;;5058684;28;20194;-76
2020/12/02 08:41:28;;;;;;;31.08;16.35;;;7.90;99.90;;;;;;5058964;28;20201;-76
2020/12/02 08:44:07;;;;;;;22.13;12.32;;;7.90;99.90;;;;;;5065532;28;20217;-77
2020/12/02 08:46:47;;;;;;;20.88;14.00;;;7.90;99.90;;;;;;5061873;28;20204;-79
2020/12/02 08:49:14;;;;;;;20.40;12.82;;;7.90;99.90;;;;;;5060284;28;20185;-77
2020/12/02 08:51:43;;;;;;;22.75;14.00;;;7.90;99.90;;;;;;5058956;28;20207;-76
2020/12/02 08:54:10;;;;;;;25.55;13.93;;;7.90;99.90;;;;;;5060110;28;20203;-77
2020/12/02 08:56:38;;;;;;;26.20;14.35;;;7.90;99.90;;;;;;5060003;28;20194;-76
2020/12/02 08:59:06;;;;;;;19.85;13.68;;;7.90;99.90;;;;;;5064642;28;20215;-76
2020/12/02 09:01:32;;;;;;;18.70;14.32;;;7.90;99.90;;;;;;5059870;28;20224;-76
2020/12/02 09:03:59;;;;;;;24.13;14.02;;;7.90;99.90;;;;;;5061261;28;20287;-76
2020/12/02 09:06:25;;;;;;;22.60;14.80;;;7.90;99.90;;;;;;5061829;28;20705;-76
2020/12/02 09:08:53;;;;;;;20.27;14.85;;;7.90;99.90;;;;;;5059938;28;20200;-77
2020/12/02 09:11:23;;;;;;;28.88;16.55;;;7.90;99.90;;;;;;5056344;28;20239;-77
2020/12/02 09:13:51;;;;;;;20.98;14.63;;;7.90;99.90;;;;;;5063185;28;20209;-78
2020/12/02 09:16:23;;;;;;;19.88;13.80;;;7.90;99.90;;;;;;5055823;28;20208;-79
2020/12/02 09:18:49;;;;;;;20.52;12.93;;;7.90;99.90;;;;;;5056111;28;20194;-80
2020/12/02 09:21:16;;;;;;;16.90;13.05;;;8.00;99.90;;;;;;5058393;28;20205;-76
2020/12/02 09:23:42;;;;;;;20.75;14.15;;;7.90;99.90;;;;;;5058392;28;20233;-78
2020/12/02 09:26:08;;;;;;;19.55;13.77;;;8.00;99.90;;;;;;5051809;28;20282;-75
2020/12/02 09:28:35;;;;;;;26.25;13.77;;;8.00;99.90;;;;;;5062508;28;20287;-79
2020/12/02 09:31:02;;;;;;;24.33;13.13;;;8.00;99.90;;;;;;5053949;28;20247;-76
2020/12/02 09:33:28;;;;;;;18.00;12.60;;;8.00;99.90;;;;;;5053928;28;20194;-76
2020/12/02 09:35:55;;;;;;;17.15;13.18;;;8.00;99.90;;;;;;5053090;28;20209;-77
2020/12/02 09:38:22;;;;;;;15.00;13.15;;;8.00;99.90;;;;;;5062147;28;20201;-76
2020/12/02 09:40:50;;;;;;;16.35;13.48;;;8.00;99.90;;;;;;5062106;28;20228;-76
2020/12/02 09:43:39;;;;;;;17.60;13.82;;;7.90;99.90;;;;;;5054905;28;20684;-76
2020/12/02 09:46:13;;;;;;;24.10;13.07;;;7.90;99.90;;;;;;5057739;28;20556;-76
2020/12/02 09:48:39;;;;;;;28.70;12.52;;;7.90;99.90;;;;;;5063881;28;20200;-77
2020/12/02 09:51:19;;;;;;;31.80;11.98;;;7.90;99.90;;;;;;5062615;28;20193;-76
2020/12/02 09:53:48;;;;;;;14.45;11.82;;;7.90;99.90;;;;;;5064106;28;20211;-78
2020/12/02 09:56:17;;;;;;;24.35;13.25;;;7.90;99.90;;;;;;5066230;28;20200;-77
2020/12/02 09:58:43;;;;;;;19.67;13.93;;;7.90;99.90;;;;;;5065460;28;20192;-79
2020/12/02 10:01:15;;;;;;;16.20;12.43;;;7.90;99.90;;;;;;5065321;28;20228;-77
2020/12/02 10:04:11;;;;;;;18.00;12.82;;;7.90;99.90;;;;;;5061151;28;20703;-76
2020/12/02 10:07:09;;;;;;;17.27;13.00;;;7.90;99.90;;;;;;5057445;28;20545;-77
2020/12/02 10:09:56;;;;;;;23.17;11.63;;;7.90;99.90;;;;;;5064549;28;20194;-77
2020/12/02 10:12:32;;;;;;;18.25;13.50;;;7.90;99.90;;;;;;5061020;28;20656;-77
2020/12/02 10:15:09;;;;;;;20.58;13.90;;;7.90;99.90;;;;;;5056533;28;20525;-77
2020/12/02 10:17:51;;;;;;;21.20;14.57;;;7.90;99.90;;;;;;5065814;28;20205;-78
2020/12/02 10:20:34;;;;;;;17.02;11.55;;;7.90;99.90;;;;;;5061030;28;20194;-76
2020/12/02 10:23:15;;;;;;;19.63;13.13;;;7.90;99.90;;;;;;5068134;28;20229;-76
2020/12/02 10:26:05;;;;;;;18.02;12.85;;;8.00;99.90;;;;;;5064543;28;20201;-79
2020/12/02 10:28:37;;;;;;;20.20;14.25;;;8.00;99.90;;;;;;5061491;28;20193;-76
2020/12/02 10:31:15;;;;;;;16.20;12.82;;;8.00;99.90;;;;;;5058872;28;20214;-76
2020/12/02 10:34:00;;;;;;;18.58;13.15;;;8.00;99.90;;;;;;5063155;28;20653;-79
2020/12/02 10:36:31;;;;;;;17.52;12.88;;;8.00;99.90;;;;;;5064075;28;20284;-78
2020/12/02 10:39:01;;;;;;;18.30;13.20;;;8.00;99.90;;;;;;5065568;28;20196;-76
2020/12/02 10:41:40;;;;;;;20.20;13.38;;;8.00;99.90;;;;;;5064074;28;20220;-77
2020/12/02 10:44:21;;;;;;;13.13;11.70;;;8.00;99.90;;;;;;5061688;28;20558;-76
2020/12/02 10:47:05;;;;;;;18.58;11.90;;;8.00;99.90;;;;;;5061505;28;20195;-79
2020/12/02 10:49:33;;;;;;;14.93;11.30;;;8.00;99.90;;;;;;5057021;28;20564;-76
2020/12/02 10:52:02;;;;;;;12.90;10.38;;;7.90;99.90;;;;;;5057725;28;20201;-78
2020/12/02 10:54:34;;;;;;;11.82;9.98;;;8.00;99.90;;;;;;5055418;28;20938;-76
2020/12/02 10:57:05;;;;;;;11.98;10.57;;;8.00;99.90;;;;;;5062913;28;20205;-76
2020/12/02 10:59:32;;;;;;;13.10;11.68;;;8.00;99.90;;;;;;5059638;28;20193;-76
2020/12/02 11:01:58;;;;;;;12.75;11.25;;;8.00;99.90;;;;;;5054718;28;20280;-76
2020/12/02 11:04:24;;;;;;;14.38;11.23;;;8.00;99.90;;;;;;5056164;28;20201;-76
2020/12/02 11:07:13;;;;;;;13.13;11.32;;;7.90;99.90;;;;;;5062524;28;20193;-79
2020/12/02 11:10:23;;;;;;;12.85;11.55;;;8.00;99.90;;;;;;5064286;28;20205;-76
2020/12/02 11:13:00;;;;;;;15.25;10.52;;;7.90;99.90;;;;;;5057484;28;20252;-79
2020/12/02 11:15:33;;;;;;;12.70;11.40;;;7.90;99.90;;;;;;5055196;28;20520;-77
2020/12/02 11:18:11;;;;;;;12.55;11.18;;;7.90;99.90;;;;;;5065873;28;20209;-76
2020/12/02 11:20:45;;;;;;;11.98;10.55;;;7.90;99.90;;;;;;5057838;28;20189;-76
2020/12/02 11:23:37;;;;;;;12.75;11.43;;;8.00;99.90;;;;;;5048753;28;20224;-75
2020/12/02 11:26:14;;;;;;;12.80;10.98;;;8.00;99.90;;;;;;5050147;28;20846;-77
2020/12/02 11:28:41;;;;;;;12.30;10.32;;;8.00;99.90;;;;;;5060260;28;20197;-77
2020/12/02 11:31:23;;;;;;;12.13;10.60;;;8.00;99.90;;;;;;5058717;28;20212;-76
2020/12/02 11:34:00;;;;;;;11.65;10.02;;;8.00;99.90;;;;;;5059069;28;20201;-76
2020/12/02 11:36:38;;;;;;;12.52;10.60;;;8.00;99.90;;;;;;5057022;28;20307;-79
2020/12/02 11:39:31;;;;;;;17.23;11.40;;;8.00;99.90;;;;;;5054236;28;20205;-78
2020/12/02 11:42:05;;;;;;;22.02;11.43;;;8.00;99.90;;;;;;5058062;28;20205;-76
2020/12/02 11:44:39;;;;;;;13.27;10.38;;;8.00;99.90;;;;;;5055807;28;20197;-76
2020/12/02 11:47:16;;;;;;;13.50;11.48;;;8.00;99.90;;;;;;5057351;28;20216;-79
2020/12/02 11:49:51;;;;;;;12.05;10.80;;;8.00;99.90;;;;;;5052919;28;20220;-76
2020/12/02 11:52:28;;;;;;;12.68;11.43;;;8.00;99.90;;;;;;5060048;28;20193;-76
2020/12/02 11:54:55;;;;;;;13.30;11.90;;;8.00;99.90;;;;;;5059521;28;20301;-76
2020/12/02 11:57:22;;;;;;;11.45;10.32;;;8.00;99.90;;;;;;5060084;28;20738;-76
2020/12/02 11:59:49;;;;;;;12.57;11.25;;;8.00;99.90;;;;;;5060896;28;20541;-76
2020/12/02 12:02:40;;;;;;;15.23;11.18;;;8.00;99.90;;;;;;5054458;28;20232;-76
2020/12/02 12:05:17;;;;;;;13.95;10.45;;;8.00;99.90;;;;;;5057296;28;20193;-77
2020/12/02 12:07:52;;;;;;;12.45;11.25;;;8.00;99.90;;;;;;5054684;28;20196;-76
2020/12/02 12:10:26;;;;;;;13.35;11.98;;;8.00;99.90;;;;;;5057224;28;20652;-78
2020/12/02 12:13:06;;;;;;;12.02;10.82;;;8.00;99.90;;;;;;5055387;28;20232;-75
2020/12/02 12:15:36;;;;;;;12.93;11.10;;;8.00;99.90;;;;;;5059482;28;20284;-76
2020/12/02 12:18:08;;;;;;;13.88;11.23;;;7.90;99.90;;;;;;5058064;28;20201;-79
2020/12/02 12:20:39;;;;;;;13.52;11.27;;;7.90;99.90;;;;;;5058941;28;20203;-75
2020/12/02 12:23:17;;;;;;;18.05;11.73;;;8.00;99.90;;;;;;5058044;28;20726;-75
2020/12/02 12:25:45;;;;;;;16.17;11.88;;;8.00;99.90;;;;;;5056495;28;20702;-75
2020/12/02 12:28:16;;;;;;;16.10;12.00;;;8.00;99.90;;;;;;5054939;28;20203;-78
2020/12/02 12:30:43;;;;;;;15.75;11.57;;;8.00;99.90;;;;;;5055751;28;20717;-79
2020/12/02 12:33:21;;;;;;;14.23;11.43;;;7.90;99.90;;;;;;5052335;28;20200;-77
2020/12/02 12:35:50;;;;;;;15.70;12.38;;;7.90;99.90;;;;;;5052291;28;20196;-78
2020/12/02 12:38:24;;;;;;;15.75;11.50;;;7.90;99.90;;;;;;5055134;28;20200;-77
2020/12/02 12:40:58;;;;;;;12.82;11.50;;;7.90;99.90;;;;;;5056763;28;20197;-76
2020/12/02 12:43:30;;;;;;;18.45;12.20;;;7.90;99.90;;;;;;5053872;28;20700;-76
2020/12/02 12:46:03;;;;;;;14.77;13.25;;;7.90;99.90;;;;;;5063723;28;20189;-79
2020/12/02 12:48:30;;;;;;;16.17;11.57;;;7.90;99.90;;;;;;5059014;28;20198;-76
2020/12/02 12:51:00;;;;;;;15.68;12.10;;;7.90;99.90;;;;;;5054483;28;20226;-76
2020/12/02 12:53:26;;;;;;;15.93;12.57;;;7.90;99.90;;;;;;5055184;28;20730;-79
2020/12/02 12:55:54;;;;;;;16.77;12.48;;;7.90;99.90;;;;;;5055261;28;20224;-76
2020/12/02 12:58:20;;;;;;;17.02;13.05;;;7.90;99.90;;;;;;5060602;28;20800;-76